createdAt,value
2023-01-23T00:01:18.906Z,-0.49
2023-01-23T00:03:45.799Z,-0.54
2023-01-23T00:06:14.166Z,-0.62
2023-01-23T00:08:41.311Z,-0.66
2023-01-23T00:11:09.740Z,-0.57
2023-01-23T00:13:36.591Z,-0.49
2023-01-23T00:16:05.516Z,-0.52
2023-01-23T00:18:32.711Z,-0.55
2023-01-23T00:21:03.241Z,-0.58
2023-01-23T00:23:30.101Z,-0.59
2023-01-23T00:26:02.545Z,-0.49
2023-01-23T00:28:29.430Z,-0.41
2023-01-23T00:31:06.036Z,-0.44
2023-01-23T00:33:32.957Z,-0.48
2023-01-23T00:36:00.352Z,-0.51
2023-01-23T00:38:27.347Z,-0.45
2023-01-23T00:40:55.286Z,-0.38
2023-01-23T00:43:22.944Z,-0.42
2023-01-23T00:45:50.208Z,-0.47
2023-01-23T00:48:17.018Z,-0.50
2023-01-23T00:50:44.476Z,-0.43
2023-01-23T00:53:13.151Z,-0.31
2023-01-23T00:55:40.551Z,-0.31
2023-01-23T00:58:08.719Z,-0.34
2023-01-23T01:00:38.600Z,-0.36
2023-01-23T01:03:05.647Z,-0.36
2023-01-23T01:05:32.959Z,-0.26
2023-01-23T01:07:59.751Z,-0.18
2023-01-23T01:10:29.681Z,-0.22
2023-01-23T01:12:57.763Z,-0.26
2023-01-23T01:15:24.821Z,-0.31
2023-01-23T01:17:54.306Z,-0.25
2023-01-23T01:20:23.796Z,-0.21
2023-01-23T01:22:50.687Z,-0.24
2023-01-23T01:25:17.741Z,-0.28
2023-01-23T01:27:44.674Z,-0.33
2023-01-23T01:30:11.865Z,-0.28
2023-01-23T01:32:39.904Z,-0.21
2023-01-23T01:35:08.136Z,-0.22
2023-01-23T01:37:36.055Z,-0.25
2023-01-23T01:40:03.593Z,-0.28
2023-01-23T01:42:30.627Z,-0.19
2023-01-23T01:45:01.563Z,-0.13
2023-01-23T01:47:28.375Z,-0.18
2023-01-23T01:50:01.534Z,-0.23
2023-01-23T01:52:28.319Z,-0.27
2023-01-23T01:55:05.023Z,-0.18
2023-01-23T01:57:36.400Z,-0.13
2023-01-23T02:00:12.372Z,-0.18
2023-01-23T02:02:45.303Z,-0.23
2023-01-23T02:05:14.399Z,-0.26
2023-01-23T02:07:54.974Z,-0.19
2023-01-23T02:10:22.726Z,-0.16
2023-01-23T02:12:51.636Z,-0.22
2023-01-23T02:15:21.094Z,-0.27
2023-01-23T02:17:49.403Z,-0.31
2023-01-23T02:20:24.164Z,-0.22
2023-01-23T02:22:57.792Z,-0.15
2023-01-23T02:25:29.558Z,-0.20
2023-01-23T02:27:56.674Z,-0.27
2023-01-23T02:30:23.998Z,-0.35
2023-01-23T02:32:52.286Z,-0.37
2023-01-23T02:35:28.156Z,-0.28
2023-01-23T02:37:58.925Z,-0.23
2023-01-23T02:40:37.470Z,-0.29
2023-01-23T02:43:06.163Z,-0.36
2023-01-23T02:45:33.915Z,-0.41
2023-01-23T02:48:01.785Z,-0.43
2023-01-23T02:50:29.030Z,-0.33
2023-01-23T02:52:58.041Z,-0.26
2023-01-23T02:55:26.705Z,-0.27
2023-01-23T02:57:53.856Z,-0.32
2023-01-23T03:00:22.368Z,-0.35
2023-01-23T03:02:50.886Z,-0.36
2023-01-23T03:05:18.246Z,-0.27
2023-01-23T03:07:45.019Z,-0.20
2023-01-23T03:10:12.481Z,-0.21
2023-01-23T03:12:43.827Z,-0.26
2023-01-23T03:15:13.212Z,-0.30
2023-01-23T03:17:40.259Z,-0.32
2023-01-23T03:20:07.558Z,-0.23
2023-01-23T03:22:34.760Z,-0.17
2023-01-23T03:25:01.580Z,-0.21
2023-01-23T03:27:28.916Z,-0.28
2023-01-23T03:30:15.836Z,-0.34
2023-01-23T03:32:43.572Z,-0.40
2023-01-23T03:35:10.688Z,-0.34
2023-01-23T03:37:37.451Z,-0.28
2023-01-23T03:40:23.226Z,-0.30
2023-01-23T03:42:49.975Z,-0.34
2023-01-23T03:45:23.529Z,-0.33
2023-01-23T03:47:51.069Z,-0.31
2023-01-23T03:50:18.052Z,-0.22
2023-01-23T03:52:45.260Z,-0.14
2023-01-23T03:55:12.070Z,-0.15
2023-01-23T03:57:38.895Z,-0.16
2023-01-23T04:00:06.632Z,-0.17
2023-01-23T04:02:45.575Z,-0.18
2023-01-23T04:05:13.890Z,-0.11
2023-01-23T04:09:09.051Z,-0.05
2023-01-23T04:11:36.224Z,-0.11
2023-01-23T04:14:05.138Z,-0.17
2023-01-23T04:16:32.248Z,-0.22
2023-01-23T04:18:59.407Z,-0.17
2023-01-23T04:21:26.994Z,-0.12
2023-01-23T04:23:53.976Z,-0.15
2023-01-23T04:26:21.095Z,-0.17
2023-01-23T04:28:47.977Z,-0.24
2023-01-23T04:31:15.859Z,-0.26
2023-01-23T04:33:45.037Z,-0.17
2023-01-23T04:36:12.388Z,-0.12
2023-01-23T04:38:39.034Z,-0.15
2023-01-23T04:41:21.920Z,-0.19
2023-01-23T04:43:50.082Z,-0.23
2023-01-23T04:46:17.316Z,-0.26
2023-01-23T04:49:08.627Z,-0.14
2023-01-23T04:51:37.012Z,-0.05
2023-01-23T04:54:04.488Z,-0.06
2023-01-23T04:56:32.387Z,-0.08
2023-01-23T04:59:00.107Z,-0.11
2023-01-23T05:01:27.006Z,-0.11
2023-01-23T05:03:56.724Z,-0.01
2023-01-23T05:06:24.148Z,0.06
2023-01-23T05:08:52.584Z,0.04
2023-01-23T05:11:27.897Z,-0.00
2023-01-23T05:13:54.572Z,-0.04
2023-01-23T05:16:21.551Z,-0.06
2023-01-23T05:19:12.008Z,0.06
2023-01-23T05:21:38.976Z,0.11
2023-01-23T05:24:06.418Z,0.06
2023-01-23T05:26:34.662Z,-0.02
2023-01-23T05:29:03.002Z,-0.05
2023-01-23T05:31:30.018Z,-0.06
2023-01-23T05:34:23.490Z,0.08
2023-01-23T05:36:50.188Z,0.14
2023-01-23T05:39:16.849Z,0.13
2023-01-23T05:41:43.924Z,0.11
2023-01-23T05:44:31.898Z,0.06
2023-01-23T05:47:04.959Z,0.10
2023-01-23T05:49:33.225Z,0.17
2023-01-23T05:51:59.924Z,0.11
2023-01-23T05:54:29.369Z,0.01
2023-01-23T05:56:56.223Z,-0.06
2023-01-23T05:59:41.501Z,-0.09
2023-01-23T06:02:28.643Z,0.01
2023-01-23T06:05:15.952Z,0.05
2023-01-23T06:07:56.750Z,0.02
2023-01-23T06:10:25.606Z,-0.03
2023-01-23T06:12:52.464Z,-0.07
2023-01-23T06:15:19.105Z,-0.01
2023-01-23T06:17:46.043Z,0.06
2023-01-23T06:20:13.807Z,0.04
2023-01-23T06:22:41.882Z,0.03
2023-01-23T06:25:11.814Z,0.01
2023-01-23T06:27:38.917Z,-0.01
2023-01-23T06:30:08.443Z,0.08
2023-01-23T06:32:43.660Z,0.13
2023-01-23T06:35:11.631Z,0.10
2023-01-23T06:37:41.040Z,0.09
2023-01-23T06:40:13.588Z,0.09
2023-01-23T06:42:43.016Z,0.15
2023-01-23T06:45:10.794Z,0.18
2023-01-23T06:47:37.829Z,0.15
2023-01-23T06:50:05.794Z,0.11
2023-01-23T06:52:36.105Z,0.07
2023-01-23T06:55:02.985Z,0.06
2023-01-23T06:57:30.247Z,0.15
2023-01-23T06:59:57.244Z,0.24
2023-01-23T07:02:25.552Z,0.23
2023-01-23T07:04:52.788Z,0.23
2023-01-23T07:07:22.092Z,0.21
2023-01-23T07:09:49.345Z,0.31
2023-01-23T07:12:19.216Z,0.41
2023-01-23T07:14:46.177Z,0.36
2023-01-23T07:17:16.730Z,0.29
2023-01-23T07:19:43.918Z,0.25
2023-01-23T07:22:12.226Z,0.17
2023-01-23T07:24:39.421Z,0.21
2023-01-23T07:27:06.113Z,0.23
2023-01-23T07:29:34.036Z,0.18
2023-01-23T07:32:00.666Z,0.12
2023-01-23T07:34:28.005Z,0.04
2023-01-23T07:36:55.368Z,0.04
2023-01-23T07:39:22.217Z,0.15
2023-01-23T07:41:48.784Z,0.18
2023-01-23T07:44:17.490Z,0.16
2023-01-23T07:46:45.322Z,0.15
2023-01-23T07:49:12.550Z,0.14
2023-01-23T07:51:39.846Z,0.21
2023-01-23T07:54:06.969Z,0.25
2023-01-23T07:56:34.347Z,0.16
2023-01-23T07:59:01.240Z,0.09
2023-01-23T08:01:28.189Z,0.04
2023-01-23T08:03:55.095Z,0.00
2023-01-23T08:06:21.877Z,0.05
2023-01-23T08:08:49.476Z,0.12
2023-01-23T08:11:16.518Z,0.12
2023-01-23T08:13:43.263Z,0.11
2023-01-23T08:16:13.352Z,0.10
2023-01-23T08:18:40.388Z,0.10
2023-01-23T08:21:07.437Z,0.21
2023-01-23T08:23:35.351Z,0.30
2023-01-23T08:26:04.092Z,0.25
2023-01-23T08:28:30.766Z,0.19
2023-01-23T08:31:01.815Z,0.13
2023-01-23T08:33:28.928Z,0.09
2023-01-23T08:35:57.157Z,0.17
2023-01-23T08:38:23.871Z,0.25
2023-01-23T08:40:52.121Z,0.21
2023-01-23T08:43:20.054Z,0.18
2023-01-23T08:45:50.770Z,0.14
2023-01-23T08:48:18.748Z,0.14
2023-01-23T08:50:45.876Z,0.25
2023-01-23T08:53:13.074Z,0.28
2023-01-23T08:55:40.130Z,0.28
2023-01-23T08:58:07.487Z,0.26
2023-01-23T09:00:34.321Z,0.21
2023-01-23T09:03:01.926Z,0.30
2023-01-23T09:05:28.930Z,0.37
2023-01-23T09:07:56.571Z,0.34
2023-01-23T09:10:24.570Z,0.30
2023-01-23T09:12:52.295Z,0.25
2023-01-23T09:15:19.024Z,0.23
2023-01-23T09:17:46.151Z,0.30
2023-01-23T09:20:13.175Z,0.35
2023-01-23T09:22:39.838Z,0.32
2023-01-23T09:25:07.238Z,0.25
2023-01-23T09:27:34.128Z,0.19
2023-01-23T09:30:00.848Z,0.12
2023-01-23T09:32:27.596Z,0.19
2023-01-23T09:34:54.673Z,0.23
2023-01-23T09:37:21.572Z,0.20
2023-01-23T09:39:51.089Z,0.17
2023-01-23T09:42:20.714Z,0.14
2023-01-23T09:44:50.052Z,0.12
2023-01-23T09:47:24.760Z,0.22
2023-01-23T09:50:06.683Z,0.32
2023-01-23T09:52:45.433Z,0.34
2023-01-23T09:55:21.354Z,0.35
2023-01-23T09:57:55.672Z,0.32
2023-01-23T10:00:27.055Z,0.29
2023-01-23T10:02:53.761Z,0.36
2023-01-23T10:05:25.564Z,0.41
2023-01-23T10:07:56.179Z,0.34
2023-01-23T10:10:54.128Z,0.28
2023-01-23T10:13:39.468Z,0.22
2023-01-23T10:16:25.049Z,0.24
2023-01-23T10:19:19.301Z,0.36
2023-01-23T10:22:25.475Z,0.32
2023-01-23T10:24:55.069Z,0.24
2023-01-23T10:27:24.039Z,0.19
2023-01-23T10:29:57.433Z,0.17
2023-01-23T10:35:18.163Z,0.32
2023-01-23T10:38:06.204Z,0.28
2023-01-23T10:40:52.574Z,0.23
2023-01-23T10:43:20.585Z,0.18
2023-01-23T10:45:48.512Z,0.19
2023-01-23T10:48:34.613Z,0.28
2023-01-23T10:51:01.636Z,0.32
2023-01-23T10:53:43.839Z,0.29
2023-01-23T10:56:13.672Z,0.22
2023-01-23T10:58:44.255Z,0.16
2023-01-23T11:01:38.779Z,0.23
2023-01-23T11:04:18.124Z,0.28
2023-01-23T11:06:51.240Z,0.23
2023-01-23T11:09:19.335Z,0.19
2023-01-23T11:12:04.506Z,0.16
2023-01-23T11:14:31.993Z,0.13
2023-01-23T11:17:03.637Z,0.20
2023-01-23T11:19:32.074Z,0.27
2023-01-23T11:22:03.563Z,0.22
2023-01-23T11:24:41.363Z,0.16
2023-01-23T11:27:29.266Z,0.12
2023-01-23T11:30:08.309Z,0.12
2023-01-23T11:32:55.148Z,0.23
2023-01-23T11:35:47.163Z,0.25
2023-01-23T11:38:19.791Z,0.14
2023-01-23T11:40:51.132Z,0.09
2023-01-23T11:43:17.772Z,0.03
2023-01-23T11:46:06.284Z,-0.02
2023-01-23T11:52:48.144Z,0.15
2023-01-23T11:55:40.232Z,0.13
2023-01-23T11:58:25.836Z,0.13
2023-01-23T12:01:05.348Z,0.09
2023-01-23T12:04:00.404Z,0.19
2023-01-23T12:06:42.758Z,0.25
2023-01-23T12:09:19.664Z,0.25
2023-01-23T12:12:11.646Z,0.25
2023-01-23T12:14:50.539Z,0.24
2023-01-23T12:17:49.794Z,0.22
2023-01-23T12:20:44.356Z,0.30
2023-01-23T12:23:33.879Z,0.32
2023-01-23T12:26:11.974Z,0.27
2023-01-23T12:28:53.763Z,0.23
2023-01-23T12:31:36.878Z,0.20
2023-01-23T12:34:39.572Z,0.30
2023-01-23T12:37:30.673Z,0.37
2023-01-23T12:41:36.866Z,0.34
2023-01-23T12:44:34.191Z,0.30
2023-01-23T12:47:05.599Z,0.30
2023-01-23T12:50:04.359Z,0.41
2023-01-23T12:52:39.798Z,0.44
2023-01-23T12:55:20.829Z,0.37
2023-01-23T12:57:59.468Z,0.31
2023-01-23T13:00:37.771Z,0.28
2023-01-23T13:04:03.683Z,0.26
2023-01-23T13:06:40.539Z,0.39
2023-01-23T13:09:18.478Z,0.40
2023-01-23T13:11:56.224Z,0.34
2023-01-23T13:14:43.536Z,0.31
2023-01-23T13:17:26.828Z,0.27
2023-01-23T13:20:12.980Z,0.30
2023-01-23T13:22:39.913Z,0.29
2023-01-23T13:25:19.981Z,0.24
2023-01-23T13:27:54.976Z,0.19
2023-01-23T13:30:35.757Z,0.15
2023-01-23T13:33:05.263Z,0.10
2023-01-23T13:35:39.304Z,0.17
2023-01-23T13:38:21.221Z,0.21
2023-01-23T13:41:06.202Z,0.16
2023-01-23T13:43:55.133Z,0.12
2023-01-23T13:46:28.021Z,0.04
2023-01-23T14:21:59.394Z,0.03
2023-01-23T14:24:44.584Z,-0.02
2023-01-23T14:27:21.581Z,-0.08
2023-01-23T14:29:59.916Z,-0.10
2023-01-23T14:32:29.419Z,-0.01
2023-01-23T14:34:56.273Z,0.04
2023-01-23T14:37:23.002Z,-0.01
2023-01-23T14:39:53.702Z,-0.08
2023-01-23T14:42:30.340Z,-0.14
2023-01-23T14:44:58.391Z,-0.19
2023-01-23T14:47:34.722Z,-0.14
2023-01-23T14:50:02.246Z,-0.08
2023-01-23T14:52:30.220Z,-0.09
2023-01-23T14:55:01.178Z,-0.12
2023-01-23T14:57:34.706Z,-0.14
2023-01-23T15:00:01.858Z,-0.16
2023-01-23T15:05:26.385Z,0.01
2023-01-23T15:07:57.319Z,-0.01
2023-01-23T15:10:40.061Z,-0.06
2023-01-23T15:13:09.738Z,-0.12
2023-01-23T15:15:36.684Z,-0.19
2023-01-23T15:18:05.886Z,-0.13
2023-01-23T15:20:40.397Z,-0.09
2023-01-23T15:23:26.893Z,-0.11
2023-01-23T15:26:19.411Z,-0.17
2023-01-23T15:29:20.178Z,-0.22
2023-01-23T15:31:51.116Z,-0.23
2023-01-23T15:34:50.323Z,-0.09
2023-01-23T15:37:20.229Z,-0.06
2023-01-23T15:39:59.298Z,-0.10
2023-01-23T15:42:31.445Z,-0.14
2023-01-23T15:45:00.941Z,-0.18
2023-01-23T15:47:29.826Z,-0.24
2023-01-23T15:50:01.079Z,-0.19
2023-01-23T15:52:30.166Z,-0.15
2023-01-23T15:55:02.542Z,-0.21
2023-01-23T15:57:29.688Z,-0.27
2023-01-23T15:59:56.749Z,-0.32
2023-01-23T16:02:31.070Z,-0.37
2023-01-23T16:05:00.764Z,-0.31
2023-01-23T16:07:33.849Z,-0.25
2023-01-23T16:10:25.992Z,-0.28
2023-01-23T16:12:54.371Z,-0.33
2023-01-23T16:15:25.111Z,-0.35
2023-01-23T16:17:53.289Z,-0.36
2023-01-23T16:20:22.176Z,-0.27
2023-01-23T16:22:51.522Z,-0.20
2023-01-23T16:27:18.966Z,-0.22
2023-01-23T16:29:49.263Z,-0.29
2023-01-23T16:32:17.541Z,-0.33
2023-01-23T16:34:44.802Z,-0.35
2023-01-23T16:37:16.143Z,-0.24
2023-01-23T16:39:47.280Z,-0.14
2023-01-23T16:42:22.434Z,-0.14
2023-01-23T16:44:50.546Z,-0.14
2023-01-23T16:47:17.952Z,-0.15
2023-01-23T16:49:53.664Z,-0.18
2023-01-23T16:52:22.598Z,-0.20
2023-01-23T16:54:51.581Z,-0.09
2023-01-23T16:57:19.353Z,-0.03
2023-01-23T16:59:46.294Z,-0.06
2023-01-23T17:02:20.841Z,-0.07
2023-01-23T17:04:48.062Z,-0.13
2023-01-23T17:07:16.562Z,-0.20
2023-01-23T17:09:44.321Z,-0.16
2023-01-23T17:12:14.428Z,-0.10
2023-01-23T17:14:41.889Z,-0.11
2023-01-23T17:17:15.801Z,-0.13
2023-01-23T17:19:43.053Z,-0.16
2023-01-23T17:22:27.307Z,-0.17
2023-01-23T17:24:54.160Z,-0.21
2023-01-23T17:27:21.510Z,-0.10
2023-01-23T17:29:49.298Z,-0.03
2023-01-23T17:32:34.150Z,-0.03
2023-01-23T17:35:03.717Z,-0.07
2023-01-23T17:37:30.792Z,-0.12
2023-01-23T17:39:57.733Z,-0.15
2023-01-23T17:42:24.772Z,-0.16
2023-01-23T17:44:51.830Z,-0.07
2023-01-23T17:47:19.198Z,-0.03
2023-01-23T17:49:51.372Z,-0.05
2023-01-23T17:52:21.150Z,-0.05
2023-01-23T17:54:48.825Z,-0.06
2023-01-23T17:57:19.448Z,-0.07
2023-01-23T17:59:46.799Z,0.01
2023-01-23T18:02:27.213Z,0.09
2023-01-23T18:04:54.637Z,0.07
2023-01-23T18:07:21.886Z,0.04
2023-01-23T18:09:49.025Z,-0.02
2023-01-23T18:12:23.079Z,-0.09
2023-01-23T18:14:52.434Z,-0.14
2023-01-23T18:17:27.270Z,-0.07
2023-01-23T18:19:54.940Z,0.01
2023-01-23T18:22:22.896Z,-0.01
2023-01-23T18:24:50.249Z,-0.05
2023-01-23T18:27:24.879Z,-0.08
2023-01-23T18:29:55.091Z,-0.12
2023-01-23T18:32:50.111Z,-0.05
2023-01-23T18:35:45.103Z,-0.00
2023-01-23T18:38:14.846Z,-0.07
2023-01-23T18:40:42.387Z,-0.12
2023-01-23T18:43:15.146Z,-0.17
2023-01-23T18:45:42.363Z,-0.22
2023-01-23T18:48:24.733Z,-0.14
2023-01-23T18:51:07.928Z,-0.06
2023-01-23T18:53:43.399Z,-0.06
2023-01-23T18:56:13.855Z,-0.05
2023-01-23T18:59:11.666Z,-0.04
2023-01-23T19:02:01.001Z,-0.06
2023-01-23T19:04:56.709Z,0.05
2023-01-23T19:07:26.100Z,0.06
2023-01-23T19:09:53.548Z,0.00
2023-01-23T19:12:40.732Z,-0.04
2023-01-23T19:15:36.616Z,-0.08
2023-01-23T19:18:40.296Z,-0.10
2023-01-23T19:21:24.502Z,0.01
2023-01-23T19:23:54.645Z,0.00
2023-01-23T19:26:22.421Z,-0.04
2023-01-23T19:28:50.264Z,-0.05
2023-01-23T19:31:24.424Z,-0.08
2023-01-23T19:33:52.257Z,-0.10
2023-01-23T19:36:19.673Z,-0.01
2023-01-23T19:38:46.437Z,0.05
2023-01-23T19:41:41.374Z,0.01
2023-01-23T19:44:15.936Z,-0.03
2023-01-23T19:46:43.416Z,-0.10
2023-01-23T19:49:10.662Z,-0.14
2023-01-23T19:51:39.197Z,-0.16
2023-01-23T19:54:08.805Z,-0.07
2023-01-23T19:56:36.023Z,0.01
2023-01-23T19:59:02.806Z,-0.03
2023-01-23T20:01:34.837Z,-0.09
2023-01-23T20:04:03.220Z,-0.11
2023-01-23T20:06:33.743Z,-0.15
2023-01-23T20:09:00.667Z,-0.18
2023-01-23T20:11:27.540Z,-0.10
2023-01-23T20:13:54.605Z,-0.01
2023-01-23T20:16:24.633Z,-0.03
2023-01-23T20:18:53.294Z,-0.05
2023-01-23T20:21:21.969Z,-0.07
2023-01-23T20:23:49.364Z,-0.07
2023-01-23T20:26:18.309Z,-0.08
2023-01-23T20:28:49.558Z,0.01
2023-01-23T20:31:16.455Z,0.09
2023-01-23T20:33:44.264Z,0.08
2023-01-23T20:36:11.417Z,0.05
2023-01-23T20:38:39.098Z,0.04
2023-01-23T20:41:09.049Z,0.02
2023-01-23T20:43:37.712Z,-0.01
2023-01-23T20:46:05.984Z,0.08
2023-01-23T20:48:34.043Z,0.14
2023-01-23T20:51:01.135Z,0.11
2023-01-23T20:53:31.203Z,0.07
2023-01-23T20:56:02.807Z,0.04
2023-01-23T20:58:49.473Z,0.01
2023-01-23T21:01:19.841Z,-0.01
2023-01-23T21:03:48.256Z,0.09
2023-01-23T21:06:16.258Z,0.09
2023-01-23T21:08:43.669Z,0.03
2023-01-23T21:11:13.390Z,-0.01
2023-01-23T21:13:40.542Z,-0.06
2023-01-23T21:16:09.116Z,-0.08
2023-01-23T21:18:44.159Z,0.02
2023-01-23T21:21:18.295Z,0.13
2023-01-23T21:23:50.851Z,0.13
2023-01-23T21:26:20.462Z,0.09
2023-01-23T21:28:47.844Z,0.04
2023-01-23T21:31:20.277Z,-0.02
2023-01-23T21:33:47.256Z,-0.06
2023-01-23T21:36:16.736Z,0.02
2023-01-23T21:38:43.542Z,0.08
2023-01-23T21:41:11.553Z,0.03
2023-01-23T21:43:38.676Z,-0.05
2023-01-23T21:46:06.329Z,-0.12
2023-01-23T21:48:33.757Z,-0.19
2023-01-23T21:51:20.749Z,-0.23
2023-01-23T21:53:48.491Z,-0.25
2023-01-23T21:56:17.695Z,-0.14
2023-01-23T21:58:44.473Z,-0.11
2023-01-23T22:01:31.489Z,-0.17
2023-01-23T22:04:05.453Z,-0.20
2023-01-23T22:06:37.090Z,-0.23
2023-01-23T22:09:04.696Z,-0.25
2023-01-23T22:11:31.930Z,-0.30
2023-01-23T22:13:58.609Z,-0.21
2023-01-23T22:16:35.971Z,-0.13
2023-01-23T22:19:16.844Z,-0.13
2023-01-23T22:21:45.719Z,-0.14
2023-01-23T22:24:12.497Z,-0.14
2023-01-23T22:26:39.419Z,-0.15
2023-01-23T22:29:06.735Z,-0.17
2023-01-23T22:31:34.218Z,-0.21
2023-01-23T22:34:00.883Z,-0.11
2023-01-23T22:36:27.469Z,-0.03
2023-01-23T22:38:54.776Z,-0.07
2023-01-23T22:41:21.519Z,-0.13
2023-01-23T22:43:53.833Z,-0.20
2023-01-23T22:46:21.134Z,-0.23
2023-01-23T22:48:47.716Z,-0.28
2023-01-23T22:51:16.443Z,-0.32
2023-01-23T22:53:43.235Z,-0.25
2023-01-23T22:56:10.011Z,-0.17
2023-01-23T22:58:36.889Z,-0.19
2023-01-23T23:01:03.594Z,-0.23
2023-01-23T23:03:32.149Z,-0.26
2023-01-23T23:06:00.863Z,-0.29
2023-01-23T23:08:28.219Z,-0.33
2023-01-23T23:10:59.176Z,-0.36
2023-01-23T23:13:27.961Z,-0.39
2023-01-23T23:15:54.772Z,-0.30
2023-01-23T23:18:21.882Z,-0.21
2023-01-23T23:20:48.855Z,-0.23
2023-01-23T23:23:15.986Z,-0.24
2023-01-23T23:25:43.049Z,-0.25
2023-01-23T23:28:10.026Z,-0.27
2023-01-23T23:30:36.974Z,-0.29
2023-01-23T23:33:04.018Z,-0.31
2023-01-23T23:35:32.308Z,-0.23
2023-01-23T23:37:59.222Z,-0.17
2023-01-23T23:40:26.085Z,-0.20
2023-01-23T23:42:53.443Z,-0.22
2023-01-23T23:45:20.517Z,-0.23
2023-01-23T23:47:47.528Z,-0.26
2023-01-23T23:50:14.484Z,-0.30
2023-01-23T23:52:41.700Z,-0.33
2023-01-23T23:55:08.610Z,-0.36
2023-01-23T23:57:35.248Z,-0.27
